createdAt,value
2017-11-28T00:00:48.405Z,8.04
2017-11-28T00:03:17.521Z,7.90
2017-11-28T00:05:45.840Z,7.78
2017-11-28T00:08:14.159Z,7.97
2017-11-28T00:10:42.757Z,7.93
2017-11-28T00:13:11.582Z,7.92
2017-11-28T00:15:39.930Z,7.82
2017-11-28T00:18:08.501Z,7.76
2017-11-28T00:20:36.817Z,7.82
2017-11-28T00:23:05.140Z,7.92
2017-11-28T00:25:33.490Z,8.34
2017-11-28T00:28:01.802Z,8.01
2017-11-28T00:30:30.098Z,8.11
2017-11-28T00:32:58.452Z,8.33
2017-11-28T00:35:26.800Z,8.39
2017-11-28T00:37:55.126Z,8.19
2017-11-28T00:40:23.826Z,8.24
2017-11-28T00:42:52.139Z,8.31
2017-11-28T00:45:20.459Z,8.46
2017-11-28T00:47:48.774Z,8.66
2017-11-28T00:50:17.889Z,7.99
2017-11-28T00:52:46.212Z,8.05
2017-11-28T00:55:14.557Z,8.07
2017-11-28T00:57:42.883Z,8.10
2017-11-28T01:00:11.187Z,8.01
2017-11-28T01:02:40.789Z,8.08
2017-11-28T01:05:09.907Z,8.07
2017-11-28T01:07:38.296Z,7.98
2017-11-28T01:10:06.623Z,8.22
2017-11-28T01:12:35.048Z,8.15
2017-11-28T01:15:03.397Z,8.07
2017-11-28T01:17:31.771Z,8.00
2017-11-28T01:20:00.085Z,7.81
2017-11-28T01:22:28.409Z,7.67
2017-11-28T01:24:57.115Z,7.76
2017-11-28T01:27:25.465Z,7.83
2017-11-28T01:29:53.777Z,7.90
2017-11-28T01:32:22.910Z,7.63
2017-11-28T01:34:51.230Z,7.10
2017-11-28T01:37:19.558Z,7.33
2017-11-28T01:39:47.902Z,7.40
2017-11-28T01:42:16.207Z,7.62
2017-11-28T01:44:44.535Z,7.74
2017-11-28T01:47:12.951Z,7.72
2017-11-28T01:49:41.276Z,7.67
2017-11-28T01:52:09.577Z,7.40
2017-11-28T01:54:37.938Z,7.22
2017-11-28T01:57:06.267Z,7.45
2017-11-28T01:59:34.590Z,7.51
2017-11-28T02:02:02.916Z,7.55
2017-11-28T02:04:32.093Z,7.46
2017-11-28T02:07:00.421Z,7.26
2017-11-28T02:09:28.832Z,7.25
2017-11-28T02:11:57.177Z,7.31
2017-11-28T02:14:26.278Z,7.12
2017-11-28T02:16:54.617Z,6.91
2017-11-28T02:19:23.009Z,6.97
2017-11-28T02:21:52.128Z,6.95
2017-11-28T02:24:21.214Z,6.88
2017-11-28T02:26:50.284Z,6.94
2017-11-28T02:29:18.627Z,6.78
2017-11-28T02:31:57.743Z,6.89
2017-11-28T02:34:26.055Z,6.82
2017-11-28T02:36:54.413Z,6.73
2017-11-28T02:39:22.786Z,6.53
2017-11-28T02:41:51.078Z,6.76
2017-11-28T02:44:20.295Z,6.80
2017-11-28T02:46:48.643Z,6.78
2017-11-28T02:52:23.554Z,6.74
2017-11-28T02:55:11.170Z,6.81
2017-11-28T02:57:41.065Z,6.73
2017-11-28T03:00:10.190Z,6.83
2017-11-28T03:02:39.296Z,6.59
2017-11-28T03:05:08.399Z,6.77
2017-11-28T03:07:39.634Z,6.77
2017-11-28T03:10:17.437Z,6.63
2017-11-28T03:12:51.959Z,6.59
2017-11-28T03:18:23.362Z,6.54
2017-11-28T03:20:58.461Z,6.44
2017-11-28T03:26:45.466Z,6.70
2017-11-28T03:29:17.503Z,6.71
2017-11-28T03:31:45.826Z,6.74
2017-11-28T03:34:17.973Z,6.71
2017-11-28T03:36:46.363Z,6.86
2017-11-28T03:39:14.772Z,6.88
2017-11-28T03:41:43.191Z,6.89
2017-11-28T03:47:24.722Z,6.75
2017-11-28T03:49:53.784Z,6.87
2017-11-28T03:52:22.082Z,6.79
2017-11-28T03:54:50.434Z,6.91
2017-11-28T03:57:18.751Z,6.71
2017-11-28T03:59:47.095Z,6.72
2017-11-28T04:02:15.479Z,6.79
2017-11-28T04:04:43.889Z,6.58
2017-11-28T04:07:12.255Z,6.59
2017-11-28T04:09:40.715Z,6.53
2017-11-28T04:12:09.043Z,6.66
2017-11-28T04:14:39.033Z,6.61
2017-11-28T04:17:07.687Z,6.64
2017-11-28T04:19:35.987Z,6.74
2017-11-28T04:22:05.189Z,6.86
2017-11-28T04:24:33.548Z,6.78
2017-11-28T04:27:01.833Z,6.48
2017-11-28T04:29:30.185Z,6.67
2017-11-28T04:31:58.872Z,6.72
2017-11-28T04:34:29.845Z,6.96
2017-11-28T04:36:58.155Z,6.76
2017-11-28T04:39:26.532Z,6.71
2017-11-28T04:41:54.925Z,6.72
2017-11-28T04:44:23.285Z,6.64
2017-11-28T04:46:51.662Z,6.61
2017-11-28T04:49:20.002Z,6.83
2017-11-28T04:51:49.226Z,6.86
2017-11-28T04:54:17.675Z,6.72
2017-11-28T04:56:46.811Z,6.49
2017-11-28T04:59:15.887Z,6.73
2017-11-28T05:01:44.223Z,6.75
2017-11-28T05:04:13.281Z,6.71
2017-11-28T05:06:41.594Z,6.79
2017-11-28T05:09:10.728Z,6.87
2017-11-28T05:11:39.137Z,6.70
2017-11-28T05:14:07.448Z,6.80
2017-11-28T05:16:36.691Z,6.88
2017-11-28T05:19:05.069Z,6.89
2017-11-28T05:21:33.411Z,7.18
2017-11-28T05:24:01.781Z,7.14
2017-11-28T05:26:30.875Z,7.10
2017-11-28T05:28:59.949Z,6.95
2017-11-28T05:31:28.329Z,6.83
2017-11-28T05:33:56.659Z,6.77
2017-11-28T05:36:24.970Z,6.79
2017-11-28T05:38:53.607Z,6.83
2017-11-28T05:41:21.972Z,6.88
2017-11-28T05:43:51.112Z,6.86
2017-11-28T05:46:20.309Z,6.84
2017-11-28T05:48:48.616Z,6.87
2017-11-28T05:51:16.969Z,6.76
2017-11-28T05:53:45.343Z,6.69
2017-11-28T05:56:14.614Z,6.71
2017-11-28T06:01:13.692Z,6.81
2017-11-28T06:03:42.036Z,7.06
2017-11-28T06:06:10.408Z,7.01
2017-11-28T06:08:39.307Z,6.96
2017-11-28T06:11:08.433Z,7.13
2017-11-28T06:13:36.725Z,7.24
2017-11-28T06:16:05.106Z,6.86
2017-11-28T06:18:33.470Z,7.00
2017-11-28T06:21:02.375Z,7.01
2017-11-28T06:23:30.841Z,6.99
2017-11-28T06:25:59.198Z,7.03
2017-11-28T06:28:27.544Z,7.20
2017-11-28T06:30:55.928Z,7.26
2017-11-28T06:33:24.265Z,7.39
2017-11-28T06:35:52.642Z,7.18
2017-11-28T06:38:20.999Z,7.09
2017-11-28T06:40:49.363Z,7.12
2017-11-28T06:43:17.674Z,7.03
2017-11-28T06:45:46.877Z,7.08
2017-11-28T06:48:15.220Z,7.42
2017-11-28T06:50:43.549Z,7.40
2017-11-28T06:53:12.110Z,7.28
2017-11-28T06:55:41.526Z,7.16
2017-11-28T06:58:09.933Z,7.07
2017-11-28T07:00:38.270Z,7.32
2017-11-28T07:03:06.564Z,7.19
2017-11-28T07:05:34.881Z,7.29
2017-11-28T07:08:03.288Z,7.40
2017-11-28T07:10:32.360Z,7.43
2017-11-28T07:13:02.929Z,7.38
2017-11-28T07:15:31.259Z,7.42
2017-11-28T07:17:59.602Z,7.41
2017-11-28T07:20:28.026Z,7.42
2017-11-28T07:22:56.401Z,7.36
2017-11-28T07:25:24.737Z,7.30
2017-11-28T07:27:54.280Z,7.42
2017-11-28T07:30:23.866Z,7.52
2017-11-28T07:32:52.925Z,7.32
2017-11-28T07:35:21.259Z,7.24
2017-11-28T07:37:49.637Z,7.28
2017-11-28T07:40:17.969Z,7.04
2017-11-28T07:42:46.349Z,7.10
2017-11-28T07:45:14.694Z,7.42
2017-11-28T07:47:43.030Z,7.40
2017-11-28T07:50:11.456Z,7.36
2017-11-28T07:52:40.862Z,7.36
2017-11-28T07:55:09.228Z,7.40
2017-11-28T07:57:38.114Z,7.28
2017-11-28T08:00:06.495Z,7.34
2017-11-28T08:02:34.863Z,7.40
2017-11-28T08:05:04.003Z,7.37
2017-11-28T08:07:32.345Z,7.40
2017-11-28T08:10:01.483Z,7.53
2017-11-28T08:12:29.835Z,7.51
2017-11-28T08:14:58.230Z,7.63
2017-11-28T08:17:26.587Z,7.78
2017-11-28T08:19:55.158Z,7.65
2017-11-28T08:22:24.488Z,7.77
2017-11-28T08:24:52.807Z,7.87
2017-11-28T08:27:21.118Z,7.92
2017-11-28T08:29:49.527Z,7.49
2017-11-28T08:32:17.901Z,7.47
2017-11-28T08:34:46.230Z,7.49
2017-11-28T08:37:14.931Z,7.52
2017-11-28T08:39:44.038Z,7.53
2017-11-28T08:42:12.386Z,7.74
2017-11-28T08:44:41.648Z,7.51
2017-11-28T08:47:09.973Z,7.52
2017-11-28T08:49:39.202Z,7.87
2017-11-28T08:52:07.553Z,7.93
2017-11-28T08:54:35.888Z,7.72
2017-11-28T08:57:04.295Z,7.75
2017-11-28T08:59:32.941Z,7.62
2017-11-28T09:02:01.262Z,7.87
2017-11-28T09:04:29.603Z,7.91
2017-11-28T09:06:57.988Z,7.87
2017-11-28T09:09:27.355Z,8.12
2017-11-28T09:11:56.469Z,8.42
2017-11-28T09:14:24.843Z,8.43
2017-11-28T09:16:53.189Z,8.32
2017-11-28T09:19:21.513Z,8.06
2017-11-28T09:21:50.155Z,7.94
2017-11-28T09:24:19.274Z,8.03
2017-11-28T09:26:47.634Z,8.20
2017-11-28T09:29:16.007Z,8.30
2017-11-28T09:31:45.375Z,8.36
2017-11-28T09:34:14.587Z,8.51
2017-11-28T09:36:42.921Z,8.64
2017-11-28T09:39:11.249Z,8.54
2017-11-28T09:41:39.595Z,8.52
2017-11-28T09:44:07.990Z,8.41
2017-11-28T09:46:36.342Z,8.32
2017-11-28T09:49:04.709Z,8.66
2017-11-28T09:51:33.045Z,8.24
2017-11-28T09:54:01.410Z,8.07
2017-11-28T09:56:29.737Z,7.98
2017-11-28T09:58:58.067Z,8.09
2017-11-28T10:01:26.397Z,8.30
2017-11-28T10:03:54.723Z,8.43
2017-11-28T10:06:23.250Z,8.29
2017-11-28T10:08:52.340Z,8.18
2017-11-28T10:11:21.426Z,8.38
2017-11-28T10:13:50.546Z,8.63
2017-11-28T10:16:18.864Z,8.54
2017-11-28T10:18:47.210Z,8.53
2017-11-28T10:21:15.560Z,8.74
2017-11-28T10:23:44.658Z,8.92
2017-11-28T10:26:13.760Z,8.73
2017-11-28T10:28:43.144Z,8.69
2017-11-28T10:31:11.469Z,8.61
2017-11-28T10:33:39.766Z,8.47
2017-11-28T10:36:08.107Z,8.66
2017-11-28T10:38:36.468Z,8.94
2017-11-28T10:41:05.631Z,8.85
2017-11-28T10:43:33.993Z,8.77
2017-11-28T10:46:02.320Z,9.15
2017-11-28T10:48:30.673Z,8.95
2017-11-28T10:50:59.077Z,8.63
2017-11-28T10:53:27.398Z,8.91
2017-11-28T10:55:55.698Z,9.04
2017-11-28T10:58:24.038Z,8.84
2017-11-28T11:00:53.093Z,9.07
2017-11-28T11:03:21.548Z,8.98
2017-11-28T11:05:50.687Z,8.80
2017-11-28T11:08:19.030Z,8.84
2017-11-28T11:10:47.330Z,8.70
2017-11-28T11:13:15.741Z,8.89
2017-11-28T11:15:44.830Z,8.71
2017-11-28T11:18:13.903Z,8.65
2017-11-28T11:20:42.245Z,8.45
2017-11-28T11:23:10.555Z,9.00
2017-11-28T11:25:38.853Z,8.99
2017-11-28T11:28:07.194Z,8.92
2017-11-28T11:30:35.510Z,9.01
2017-11-28T11:33:04.599Z,8.66
2017-11-28T11:35:33.113Z,8.86
2017-11-28T11:38:01.442Z,9.00
2017-11-28T11:40:29.777Z,8.96
2017-11-28T11:42:58.110Z,9.13
2017-11-28T11:45:26.444Z,8.62
2017-11-28T11:47:54.796Z,8.88
2017-11-28T11:50:23.135Z,8.78
2017-11-28T11:52:51.455Z,8.82
2017-11-28T11:55:19.797Z,8.95
2017-11-28T11:57:48.343Z,8.88
2017-11-28T12:00:16.643Z,8.87
2017-11-28T12:02:44.969Z,8.96
2017-11-28T12:05:13.365Z,8.97
2017-11-28T12:07:41.690Z,9.01
2017-11-28T12:10:10.022Z,8.92
2017-11-28T12:12:40.086Z,8.87
2017-11-28T12:15:10.253Z,8.83
2017-11-28T12:17:43.129Z,8.97
2017-11-28T12:20:11.956Z,9.09
2017-11-28T12:22:43.711Z,9.11
2017-11-28T12:25:14.573Z,9.01
2017-11-28T12:27:42.924Z,9.48
2017-11-28T12:30:11.357Z,9.58
2017-11-28T12:32:39.647Z,9.54
2017-11-28T12:35:09.424Z,9.67
2017-11-28T12:37:38.277Z,9.66
2017-11-28T12:40:06.614Z,9.58
2017-11-28T12:42:34.923Z,9.81
2017-11-28T12:45:03.266Z,9.91
2017-11-28T12:47:31.613Z,9.78
2017-11-28T12:49:59.913Z,9.67
2017-11-28T12:52:28.328Z,9.70
2017-11-28T12:54:56.669Z,9.69
2017-11-28T12:57:25.159Z,9.58
2017-11-28T12:59:53.667Z,9.48
2017-11-28T13:02:22.067Z,8.98
2017-11-28T13:04:50.390Z,9.13
2017-11-28T13:07:18.752Z,9.25
2017-11-28T13:09:47.262Z,9.31
2017-11-28T13:12:15.626Z,9.03
2017-11-28T13:14:45.024Z,9.16
2017-11-28T13:17:13.545Z,9.43
2017-11-28T13:19:41.949Z,10.43
2017-11-28T13:22:10.470Z,10.87
2017-11-28T13:24:38.778Z,10.39
2017-11-28T13:27:07.851Z,9.80
2017-11-28T13:29:37.484Z,9.26
2017-11-28T13:32:05.803Z,9.56
2017-11-28T13:34:34.137Z,9.32
2017-11-28T13:37:03.249Z,9.59
2017-11-28T13:39:31.591Z,9.50
2017-11-28T13:41:59.948Z,9.57
2017-11-28T13:44:29.260Z,9.78
2017-11-28T13:46:57.602Z,9.51
2017-11-28T13:49:25.925Z,9.41
2017-11-28T13:51:54.292Z,9.07
2017-11-28T13:54:22.617Z,9.10
2017-11-28T13:56:50.945Z,9.26
2017-11-28T13:59:19.286Z,9.23
2017-11-28T14:01:47.625Z,9.20
2017-11-28T14:04:15.956Z,9.35
2017-11-28T14:06:44.563Z,9.49
2017-11-28T14:09:12.863Z,9.62
2017-11-28T14:11:41.156Z,9.66
2017-11-28T14:14:10.271Z,9.64
2017-11-28T14:16:39.665Z,9.38
2017-11-28T14:19:08.020Z,9.23
2017-11-28T14:21:46.659Z,9.05
2017-11-28T14:27:21.365Z,9.11
2017-11-28T14:29:53.116Z,8.93
2017-11-28T14:32:39.911Z,9.13
2017-11-28T14:35:18.188Z,8.98
2017-11-28T14:37:47.846Z,8.90
2017-11-28T14:40:17.905Z,9.21
2017-11-28T14:42:47.177Z,8.98
2017-11-28T14:45:15.565Z,8.92
2017-11-28T14:47:44.722Z,9.13
2017-11-28T14:50:13.094Z,9.18
2017-11-28T14:52:45.353Z,9.02
2017-11-28T14:55:20.087Z,8.85
2017-11-28T14:57:48.912Z,8.96
2017-11-28T15:00:22.573Z,8.98
2017-11-28T15:05:58.922Z,9.09
2017-11-28T15:08:40.702Z,9.06
2017-11-28T15:14:17.562Z,8.77
2017-11-28T15:16:51.407Z,8.87
2017-11-28T15:22:23.401Z,8.85
2017-11-28T15:24:57.409Z,8.72
2017-11-28T15:27:27.357Z,8.78
2017-11-28T15:29:56.496Z,8.64
2017-11-28T15:32:25.248Z,8.85
2017-11-28T15:34:53.720Z,9.00
2017-11-28T15:37:22.084Z,8.89
2017-11-28T15:39:50.440Z,8.76
2017-11-28T15:42:18.755Z,8.72
2017-11-28T15:44:47.069Z,9.02
2017-11-28T15:47:15.463Z,9.13
2017-11-28T15:49:43.833Z,8.71
2017-11-28T15:52:12.170Z,8.68
2017-11-28T15:54:40.791Z,8.68
2017-11-28T15:57:09.127Z,8.62
2017-11-28T15:59:37.432Z,8.71
2017-11-28T16:02:05.854Z,8.65
2017-11-28T16:04:34.946Z,8.42
2017-11-28T16:07:03.310Z,8.36
2017-11-28T16:09:31.662Z,8.38
2017-11-28T16:12:00.004Z,8.20
2017-11-28T16:14:29.106Z,8.16
2017-11-28T16:16:57.775Z,8.37
2017-11-28T16:19:26.098Z,8.40
2017-11-28T16:21:55.222Z,8.17
2017-11-28T16:24:23.582Z,8.16
2017-11-28T16:26:51.934Z,8.22
2017-11-28T16:29:21.050Z,8.17
2017-11-28T16:31:50.185Z,8.32
2017-11-28T16:34:18.532Z,8.19
2017-11-28T16:36:46.858Z,8.08
2017-11-28T16:39:15.286Z,8.31
2017-11-28T16:41:43.629Z,8.15
2017-11-28T16:44:11.939Z,8.10
2017-11-28T16:46:41.067Z,8.02
2017-11-28T16:49:09.424Z,8.24
2017-11-28T16:51:37.759Z,8.38
2017-11-28T16:54:06.105Z,8.17
2017-11-28T16:56:34.452Z,8.21
2017-11-28T16:59:03.606Z,8.19
2017-11-28T17:01:32.191Z,8.28
2017-11-28T17:04:00.574Z,8.48
2017-11-28T17:06:28.918Z,8.15
2017-11-28T17:08:57.580Z,8.25
2017-11-28T17:11:25.982Z,8.11
2017-11-28T17:13:54.435Z,8.06
2017-11-28T17:16:23.205Z,8.14
2017-11-28T17:18:51.702Z,8.13
2017-11-28T17:21:20.916Z,8.19
2017-11-28T17:23:49.520Z,8.25
2017-11-28T17:26:18.068Z,8.38
2017-11-28T17:28:46.645Z,8.66
2017-11-28T17:31:16.629Z,8.62
2017-11-28T17:33:45.246Z,8.60
2017-11-28T17:36:13.672Z,8.56
2017-11-28T17:38:42.129Z,8.60
2017-11-28T17:41:10.455Z,8.23
2017-11-28T17:43:38.780Z,8.40
2017-11-28T17:46:08.045Z,8.37
2017-11-28T17:48:36.347Z,8.17
2017-11-28T17:51:04.718Z,8.03
2017-11-28T17:53:33.088Z,8.08
2017-11-28T17:56:01.415Z,7.90
2017-11-28T17:58:29.758Z,8.03
2017-11-28T18:00:58.107Z,7.98
2017-11-28T18:03:27.261Z,7.97
2017-11-28T18:05:55.957Z,8.48
2017-11-28T18:08:24.347Z,8.59
2017-11-28T18:10:52.654Z,8.43
2017-11-28T18:13:21.082Z,8.41
2017-11-28T18:15:49.412Z,8.28
2017-11-28T18:18:18.496Z,8.30
2017-11-28T18:20:47.635Z,8.38
2017-11-28T18:23:16.782Z,8.40
2017-11-28T18:25:45.128Z,8.31
2017-11-28T18:28:13.494Z,8.13
2017-11-28T18:30:42.902Z,8.36
2017-11-28T18:33:11.315Z,8.12
2017-11-28T18:35:39.656Z,8.10
2017-11-28T18:38:08.031Z,8.10
2017-11-28T18:40:37.162Z,7.95
2017-11-28T18:43:05.524Z,8.21
2017-11-28T18:45:34.385Z,8.30
2017-11-28T18:48:03.664Z,8.27
2017-11-28T18:50:32.032Z,8.27
2017-11-28T18:53:00.453Z,8.42
2017-11-28T18:55:28.814Z,8.12
2017-11-28T18:57:57.187Z,8.17
2017-11-28T19:00:27.122Z,8.33
2017-11-28T19:02:55.472Z,8.17
2017-11-28T19:05:23.900Z,8.18
2017-11-28T19:07:52.239Z,8.30
2017-11-28T19:10:20.832Z,8.42
2017-11-28T19:12:49.212Z,8.68
2017-11-28T19:15:18.384Z,8.37
2017-11-28T19:17:46.761Z,8.16
2017-11-28T19:20:15.355Z,8.19
2017-11-28T19:22:43.822Z,8.35
2017-11-28T19:25:12.189Z,8.22
2017-11-28T19:27:40.655Z,8.16
2017-11-28T19:30:09.241Z,8.08
2017-11-28T19:32:37.650Z,8.24
2017-11-28T19:35:05.997Z,8.22
2017-11-28T19:37:34.778Z,7.98
2017-11-28T19:40:03.125Z,7.96
2017-11-28T19:42:31.484Z,7.68
2017-11-28T19:44:59.858Z,7.88
2017-11-28T19:47:28.211Z,8.11
2017-11-28T19:49:56.585Z,8.17
2017-11-28T19:52:24.956Z,7.91
2017-11-28T19:54:53.290Z,8.26
2017-11-28T19:57:21.632Z,7.94
2017-11-28T19:59:50.341Z,8.18
2017-11-28T20:02:19.437Z,8.26
2017-11-28T20:04:47.767Z,8.34
2017-11-28T20:07:16.944Z,7.84
2017-11-28T20:09:45.269Z,7.97
2017-11-28T20:12:13.681Z,8.20
2017-11-28T20:14:42.056Z,8.44
2017-11-28T20:17:10.827Z,8.37
2017-11-28T20:19:39.164Z,8.22
2017-11-28T20:22:07.991Z,8.06
2017-11-28T20:24:36.334Z,7.94
2017-11-28T20:27:04.722Z,8.12
2017-11-28T20:29:33.857Z,7.84
2017-11-28T20:32:02.250Z,7.93
2017-11-28T20:34:30.582Z,7.65
2017-11-28T20:36:59.724Z,7.99
2017-11-28T20:39:28.062Z,8.03
2017-11-28T20:41:56.564Z,7.83
2017-11-28T20:44:25.018Z,7.71
2017-11-28T20:46:53.388Z,7.97
2017-11-28T20:49:28.139Z,7.65
2017-11-28T20:51:56.548Z,7.53
2017-11-28T20:54:24.853Z,7.84
2017-11-28T20:56:53.235Z,7.92
2017-11-28T20:59:21.594Z,8.05
2017-11-28T21:01:49.913Z,7.94
2017-11-28T21:04:19.257Z,8.12
2017-11-28T21:06:47.607Z,8.13
2017-11-28T21:09:16.891Z,8.04
2017-11-28T21:11:46.043Z,8.04
2017-11-28T21:14:14.624Z,8.13
2017-11-28T21:16:42.958Z,8.17
2017-11-28T21:19:12.124Z,8.01
2017-11-28T21:21:40.545Z,8.16
2017-11-28T21:24:09.246Z,8.07
2017-11-28T21:26:37.872Z,7.83
2017-11-28T21:29:06.249Z,7.81
2017-11-28T21:31:34.626Z,7.79
2017-11-28T21:34:03.030Z,7.81
2017-11-28T21:36:31.383Z,7.77
2017-11-28T21:38:59.807Z,7.95
2017-11-28T21:41:28.205Z,7.91
2017-11-28T21:43:56.541Z,8.37
2017-11-28T21:46:24.883Z,8.01
2017-11-28T21:48:53.364Z,8.09
2017-11-28T21:51:21.739Z,8.14
2017-11-28T21:53:50.077Z,7.99
2017-11-28T21:56:18.415Z,8.25
2017-11-28T21:58:47.506Z,7.95
2017-11-28T22:01:15.886Z,7.78
2017-11-28T22:03:44.267Z,8.05
2017-11-28T22:06:12.628Z,8.06
2017-11-28T22:08:42.454Z,7.90
2017-11-28T22:11:10.973Z,7.97
2017-11-28T22:13:40.072Z,8.07
2017-11-28T22:16:09.158Z,7.94
2017-11-28T22:18:37.545Z,7.77
2017-11-28T22:21:05.911Z,7.76
2017-11-28T22:23:34.259Z,7.78
2017-11-28T22:26:02.614Z,8.16
2017-11-28T22:28:31.623Z,7.72
2017-11-28T22:30:59.995Z,8.01
2017-11-28T22:33:28.501Z,8.06
2017-11-28T22:35:56.834Z,7.88
2017-11-28T22:38:25.905Z,8.01
2017-11-28T22:40:55.053Z,7.88
2017-11-28T22:43:24.442Z,7.78
2017-11-28T22:45:52.796Z,8.04
2017-11-28T22:48:21.954Z,8.17
2017-11-28T22:50:50.644Z,8.16
2017-11-28T22:53:18.956Z,7.73
2017-11-28T22:55:48.310Z,7.91
2017-11-28T22:58:16.658Z,7.79
2017-11-28T23:00:44.997Z,7.92
2017-11-28T23:03:13.380Z,8.10
2017-11-28T23:05:41.701Z,8.25
2017-11-28T23:08:10.032Z,8.03
2017-11-28T23:10:39.176Z,8.09
2017-11-28T23:13:07.506Z,7.98
2017-11-28T23:15:35.849Z,7.96
2017-11-28T23:18:04.312Z,7.74
2017-11-28T23:20:33.565Z,7.91
2017-11-28T23:23:01.900Z,8.13
2017-11-28T23:25:30.289Z,8.24
2017-11-28T23:27:58.924Z,8.24
2017-11-28T23:30:27.253Z,8.02
2017-11-28T23:32:55.618Z,8.22
2017-11-28T23:35:23.942Z,7.98
2017-11-28T23:37:52.265Z,7.67
2017-11-28T23:40:20.716Z,7.72
2017-11-28T23:42:49.033Z,7.75
2017-11-28T23:45:17.372Z,7.69
2017-11-28T23:47:45.734Z,7.56
2017-11-28T23:50:14.125Z,7.66
2017-11-28T23:52:42.442Z,7.69
2017-11-28T23:55:10.823Z,7.68
2017-11-28T23:57:39.140Z,7.58
